Time;durP1;ratioP1;P1;durP2;ratioP2;P2;SDS_P1;SDS_P2;PMS_P1;PMS_P2;Temp;Humidity;BMP_temperature;BMP_pressure;BME280_temperature;BME280_humidity;BME280_pressure;Samples;Min_cycle;Max_cycle;Signal;HPM_P1;HPM_P2
2023/10/10 00:02:28;;;;;;;;;;;;;;;14.81;100.00;101927.88;5034883;28;20065;-54
2023/10/10 00:04:59;;;;;;;27.88;21.13;;;;;;;14.33;100.00;101856.09;5049629;28;19923;-50
2023/10/10 00:07:27;;;;;;;28.67;21.25;;;;;;;14.36;100.00;101865.75;5032914;28;20030;-53
2023/10/10 00:09:52;;;;;;;29.98;23.40;;;;;;;14.69;100.00;101932.69;5032791;28;20037;-54
2023/10/10 00:12:25;;;;;;;29.92;22.45;;;;;;;14.23;100.00;101861.72;5032398;28;20420;-49
2023/10/10 00:14:51;;;;;;;32.00;23.27;;;;;;;14.61;100.00;101936.47;5048695;28;20064;-49
2023/10/10 00:17:17;;;;;;;40.13;24.38;;;;;;;14.55;100.00;101906.63;5032681;28;20076;-48
2023/10/10 00:19:52;;;;;;;29.33;24.33;;;;;;;14.16;100.00;101849.56;5032569;28;20439;-49
2023/10/10 00:22:25;;;;;;;34.97;23.73;;;;;;;14.57;100.00;101928.66;5034058;28;20156;-51
2023/10/10 00:24:50;;;;;;;35.90;25.10;;;;;;;14.56;100.00;101916.34;5033582;28;20099;-48
2023/10/10 00:27:16;;;;;;;39.72;26.60;;;;;;;14.54;100.00;101912.84;5034037;28;20037;-52
2023/10/10 00:29:44;;;;;;;33.53;25.50;;;;;;;14.03;100.00;101830.56;5031981;28;20048;-50
2023/10/10 00:32:17;;;;;;;37.58;26.80;;;;;;;14.16;100.00;101850.44;5033680;28;20026;-49
2023/10/10 00:34:48;;;;;;;38.38;27.88;;;;;;;14.38;100.00;101885.13;5032437;28;20033;-48
2023/10/10 00:37:16;;;;;;;37.17;26.38;;;;;;;14.48;100.00;101924.50;5032404;28;20405;-52
2023/10/10 00:39:47;;;;;;;36.90;26.65;;;;;;;14.34;100.00;101886.13;5033781;28;20037;-51
2023/10/10 00:42:19;;;;;;;40.80;28.10;;;;;;;14.46;100.00;101898.97;5033921;28;20030;-52
2023/10/10 00:44:46;;;;;;;37.03;27.25;;;;;;;14.36;100.00;101871.06;5031683;28;20382;-51
2023/10/10 00:47:26;;;;;;;39.70;27.58;;;;;;;14.42;100.00;101892.03;5033443;28;20034;-55
2023/10/10 00:49:52;;;;;;;35.92;27.08;;;;;;;13.94;100.00;101809.69;5033263;28;20033;-52
2023/10/10 00:52:18;;;;;;;38.70;28.23;;;;;;;14.38;100.00;101890.41;5048764;28;20045;-50
2023/10/10 00:54:43;;;;;;;40.22;27.25;;;;;;;14.35;100.00;101888.72;5032187;28;20033;-49
2023/10/10 00:57:19;;;;;;;42.55;29.38;;;;;;;13.91;100.00;101813.28;5033442;28;20037;-50
2023/10/10 00:59:45;;;;;;;42.05;28.48;;;;;;;14.33;100.00;101887.06;5031482;28;20052;-50
2023/10/10 01:02:12;;;;;;;43.88;29.58;;;;;;;14.29;100.00;101883.59;5048457;28;20030;-52
2023/10/10 01:04:56;;;;;;;37.05;28.80;;;;;;;14.28;100.00;101881.84;5033128;28;20038;-54
2023/10/10 01:07:23;;;;;;;40.67;29.67;;;;;;;14.28;100.00;101888.91;5033267;28;20116;-48
2023/10/10 01:10:07;;;;;;;42.60;30.10;;;;;;;13.83;100.00;101803.84;5033050;28;20034;-54
2023/10/10 01:12:35;;;;;;;44.28;32.17;;;;;;;14.04;100.00;101834.94;5032920;28;20083;-49
2023/10/10 01:15:08;;;;;;;50.35;30.95;;;;;;;14.17;100.00;101859.25;5029790;28;20388;-54
2023/10/10 01:17:34;;;;;;;50.58;32.65;;;;;;;13.68;100.00;101767.25;5032993;28;20048;-50
2023/10/10 01:20:49;;;;;;;43.65;30.48;;;;;;;14.26;100.00;101870.44;5031732;28;20029;-53
2023/10/10 01:22:49;;;;;;;53.55;31.77;;;;;;;13.74;100.00;101793.53;5021804;28;20408;-50
2023/10/10 01:28:13;;;;;;;45.70;31.38;;;;;;;14.29;100.00;101866.81;5032255;28;20081;-53
2023/10/10 01:33:36;;;;;;;46.60;31.30;;;;;;;14.28;100.00;101852.72;5030458;28;20041;-48
2023/10/10 01:36:03;;;;;;;50.15;31.95;;;;;;;14.10;100.00;101805.63;5030872;28;20116;-53
2023/10/10 01:38:56;;;;;;;46.58;32.22;;;;;;;14.37;100.00;101872.78;5047687;28;20034;-50
2023/10/10 01:41:39;;;;;;;54.10;33.38;;;;;;;13.92;100.00;101772.66;5032101;28;20112;-48
2023/10/10 01:44:12;;;;;;;55.53;33.33;;;;;;;13.82;100.00;101752.69;5032099;28;20043;-50
2023/10/10 01:46:41;;;;;;;53.03;34.05;;;;;;;14.01;100.00;101785.59;5031370;28;20115;-54
2023/10/10 01:49:52;;;;;;;57.88;35.45;;;;;;;14.41;100.00;101846.16;5030506;28;20251;-54
2023/10/10 01:51:58;;;;;;;52.78;33.67;;;;;;;14.02;100.00;101771.47;5021309;28;20121;-48
2023/10/10 01:54:41;;;;;;;59.92;36.15;;;;;;;14.08;100.00;101792.44;5046711;28;20052;-50
2023/10/10 01:57:09;;;;;;;55.33;34.42;;;;;;;13.99;100.00;101760.97;5045493;28;20033;-52
2023/10/10 01:59:38;;;;;;;61.47;35.25;;;;;;;14.40;100.00;101830.28;5030851;28;20034;-52
2023/10/10 02:02:13;;;;;;;58.72;35.17;;;;;;;14.02;100.00;101755.56;5014824;28;20033;-49
2023/10/10 02:04:39;;;;;;;59.88;37.10;;;;;;;14.45;100.00;101845.13;5030068;28;20133;-52
2023/10/10 02:07:07;;;;;;;64.97;37.08;;;;;;;14.24;100.00;101791.97;5031920;28;20033;-53
2023/10/10 02:09:40;;;;;;;62.75;38.72;;;;;;;14.46;100.00;101830.09;5030639;28;20041;-51
2023/10/10 02:12:12;;;;;;;59.80;36.10;;;;;;;14.44;100.00;101837.25;5032146;28;20099;-48
2023/10/10 02:14:37;;;;;;;63.83;37.28;;;;;;;14.33;100.00;101821.69;5031961;28;20037;-54
2023/10/10 02:17:19;;;;;;;60.65;37.47;;;;;;;14.33;100.00;101813.72;5047123;28;20381;-50
2023/10/10 02:19:52;;;;;;;57.60;37.25;;;;;;;14.05;100.00;101766.06;5045383;28;20045;-53
2023/10/10 02:22:33;;;;;;;60.15;37.67;;;;;;;14.33;100.00;101813.72;5030150;28;20038;-49
2023/10/10 02:27:55;;;;;;;56.55;36.33;;;;;;;14.00;100.00;101760.06;5044881;28;20490;-48
2023/10/10 02:30:37;;;;;;;72.18;39.97;;;;;;;14.16;100.00;101786.03;5031828;28;20030;-54
2023/10/10 02:33:14;;;;;;;60.13;37.47;;;;;;;14.34;100.00;101827.84;5031936;28;20025;-51
2023/10/10 02:35:55;;;;;;;57.00;35.85;;;;;;;14.31;100.00;101815.53;5031892;28;20545;-52
2023/10/10 02:38:34;;;;;;;;;;;;;;;14.30;100.00;101807.66;5031755;28;20546;-52
2023/10/10 02:43:54;;;;;;;62.95;37.05;;;;;;;14.24;100.00;101797.25;5030751;28;20049;-55
2023/10/10 02:46:20;;;;;;;65.38;38.95;;;;;;;14.23;100.00;101795.50;5031469;28;20073;-50
2023/10/10 02:48:53;;;;;;;65.43;39.53;;;;;;;14.02;100.00;101763.53;5031596;28;20068;-51
2023/10/10 02:51:20;;;;;;;63.95;38.00;;;;;;;14.07;100.00;101779.25;5032414;28;20048;-52
2023/10/10 02:53:46;;;;;;;70.40;38.72;;;;;;;13.67;100.00;101705.53;5034087;28;20042;-49
2023/10/10 02:56:18;;;;;;;65.55;38.90;;;;;;;14.10;100.00;101784.44;5035467;28;20071;-54
2023/10/10 02:58:45;;;;;;;70.53;40.75;;;;;;;14.11;100.00;101788.84;5034673;28;20033;-49
2023/10/10 03:01:19;;;;;;;68.47;40.83;;;;;;;13.69;100.00;101724.88;5035403;28;20045;-48
2023/10/10 03:03:44;;;;;;;72.28;40.53;;;;;;;13.74;100.00;101724.75;5035554;28;20665;-51
2023/10/10 03:06:10;;;;;;;70.40;42.17;;;;;;;13.38;100.00;101687.94;5033912;28;20061;-49
2023/10/10 03:08:48;;;;;;;92.13;46.05;;;;;;;13.79;100.00;101728.09;5050772;28;20041;-50
2023/10/10 03:11:35;;;;;;;85.72;47.17;;;;;;;13.90;100.00;101748.03;5033699;28;20033;-52
2023/10/10 03:14:07;;;;;;;76.65;43.35;;;;;;;14.16;100.00;101770.13;5035019;28;20049;-52
2023/10/10 03:17:31;;;;;;;91.03;47.40;;;;;;;14.31;100.00;101791.69;5035142;28;20044;-51
2023/10/10 03:19:27;;;;;;;84.93;48.35;;;;;;;14.36;100.00;101786.31;5026461;28;20062;-48
2023/10/10 03:22:17;;;;;;;82.50;45.63;;;;;;;13.93;100.00;101710.88;5034741;28;20579;-49
2023/10/10 03:25:03;;;;;;;81.53;44.78;;;;;;;14.33;100.00;101787.25;5034378;28;20119;-50
2023/10/10 03:30:19;;;;;;;81.22;45.47;;;;;;;14.32;100.00;101789.91;5034169;28;20092;-50
2023/10/10 03:32:59;;;;;;;92.53;47.40;;;;;;;14.30;100.00;101786.47;5035018;28;20084;-50
2023/10/10 03:35:51;;;;;;;84.43;43.83;;;;;;;14.23;100.00;101782.28;5034765;28;20076;-50
2023/10/10 03:38:26;;;;;;;96.28;46.05;;;;;;;14.28;100.00;101780.34;5034380;28;20056;-53
2023/10/10 05:25:07;;;;;;;96.47;58.63;;;;;;;13.81;100.00;101668.91;5018074;28;20075;-50
2023/10/10 05:27:32;;;;;;;95.80;60.85;;;;;;;13.87;100.00;101702.25;5029608;28;20038;-51
2023/10/10 05:29:59;;;;;;;98.28;61.10;;;;;;;13.82;100.00;101675.09;5013056;28;20038;-52
2023/10/10 05:32:30;;;;;;;96.88;60.10;;;;;;;13.76;100.00;101659.41;5012961;28;20026;-53
2023/10/10 05:34:58;;;;;;;98.53;60.30;;;;;;;13.43;100.00;101611.09;5027270;28;20341;-53
2023/10/10 05:37:24;;;;;;;98.72;59.47;;;;;;;13.85;100.00;101677.63;5011627;28;20436;-51
2023/10/10 05:39:56;;;;;;;99.65;60.40;;;;;;;13.81;100.00;101681.28;5012896;28;20033;-52
2023/10/10 05:42:33;;;;;;;95.43;60.97;;;;;;;13.78;100.00;101676.97;5012758;28;20477;-52
2023/10/10 05:44:59;;;;;;;99.15;61.03;;;;;;;13.80;100.00;101672.50;5013776;28;20046;-47
2023/10/10 05:47:24;;;;;;;97.18;60.53;;;;;;;13.33;100.00;101592.03;5025236;28;20084;-51
2023/10/10 05:49:52;;;;;;;102.38;61.67;;;;;;;13.76;100.00;101676.16;5012591;28;20041;-50
2023/10/10 05:52:17;;;;;;;95.43;61.22;;;;;;;13.76;100.00;101678.78;5012471;28;20042;-54
2023/10/10 05:54:42;;;;;;;90.35;60.15;;;;;;;13.76;100.00;101668.22;5018767;28;20038;-50
2023/10/10 05:57:10;;;;;;;96.60;60.55;;;;;;;13.77;100.00;101667.31;5025971;28;20064;-48
2023/10/10 05:59:36;;;;;;;97.97;61.22;;;;;;;13.76;100.00;101664.69;5032448;28;20236;-52
2023/10/10 06:02:01;;;;;;;92.72;59.30;;;;;;;13.80;100.00;101655.75;5032262;28;20460;-49
2023/10/10 06:04:28;;;;;;;94.32;60.78;;;;;;;13.80;100.00;101651.34;5031870;28;20044;-54
2023/10/10 06:06:53;;;;;;;98.15;63.28;;;;;;;13.39;100.00;101575.97;5018829;28;20049;-49
2023/10/10 06:09:18;;;;;;;86.18;58.83;;;;;;;13.73;100.00;101635.69;5013511;28;20435;-48
2023/10/10 06:11:47;;;;;;;93.05;60.63;;;;;;;13.54;100.00;101593.13;5047278;28;20416;-47
2023/10/10 06:14:12;;;;;;;87.80;56.00;;;;;;;13.87;100.00;101660.78;5031594;28;20033;-51
2023/10/10 06:16:37;;;;;;;85.05;59.35;;;;;;;13.80;100.00;101643.41;5013154;28;20092;-49
2023/10/10 06:19:03;;;;;;;91.57;56.95;;;;;;;13.93;100.00;101663.22;5027227;28;20046;-56
2023/10/10 06:21:32;;;;;;;90.82;59.35;;;;;;;13.85;100.00;101652.03;5026779;28;20493;-51
2023/10/10 06:23:57;;;;;;;85.82;58.20;;;;;;;13.87;100.00;101652.84;5011910;28;20460;-48
2023/10/10 06:26:24;;;;;;;80.18;56.58;;;;;;;13.52;100.00;101589.63;5031443;28;20125;-54
2023/10/10 06:28:53;;;;;;;83.28;55.10;;;;;;;13.93;100.00;101662.34;5028609;28;20101;-55
2023/10/10 06:31:23;;;;;;;92.97;60.08;;;;;;;13.94;100.00;101642.94;5018934;28;20036;-56
2023/10/10 06:33:52;;;;;;;88.30;56.88;;;;;;;13.72;100.00;101613.66;5033747;28;20041;-50
2023/10/10 06:41:40;;;;;;;86.75;56.15;;;;;;;14.13;100.00;101651.13;5023244;28;20423;-54
2023/10/10 06:44:13;;;;;;;81.90;56.33;;;;;;;14.19;100.00;101659.69;5026068;28;20048;-53
2023/10/10 06:46:40;;;;;;;84.95;55.90;;;;;;;14.21;100.00;101662.31;5038588;28;20072;-49
2023/10/10 06:49:11;;;;;;;79.05;54.15;;;;;;;14.26;100.00;101649.78;5022105;28;20033;-49
2023/10/10 06:51:40;;;;;;;79.18;56.05;;;;;;;14.31;100.00;101650.47;5033109;28;20384;-50
2023/10/10 06:54:19;;;;;;;73.13;51.78;;;;;;;13.93;100.00;101589.13;5018155;28;20057;-49
2023/10/10 06:56:45;;;;;;;80.05;53.63;;;;;;;13.98;100.00;101573.09;5018516;28;20465;-52
2023/10/10 06:59:16;;;;;;;73.07;55.33;;;;;;;14.44;100.00;101660.63;5018104;28;20037;-53
2023/10/10 07:01:48;;;;;;;70.93;53.42;;;;;;;14.07;100.00;101576.25;5023850;28;20046;-53
2023/10/10 07:04:14;;;;;;;75.28;53.58;;;;;;;14.53;100.00;101649.72;5038163;28;20021;-50
2023/10/10 07:06:44;;;;;;;73.78;52.22;;;;;;;14.22;100.00;101584.59;5036732;28;20045;-51
2023/10/10 07:12:10;;;;;;;70.22;50.13;;;;;;;14.74;100.00;101639.25;5008823;28;20042;-48
2023/10/10 07:14:43;;;;;;;;;;;;;;;14.84;100.00;101644.16;5038083;28;20110;-55
2023/10/10 07:17:21;;;;;;;71.97;51.97;;;;;;;14.82;100.00;101630.09;5002165;28;19928;-54
2023/10/10 07:22:33;;;;;;;70.70;47.72;;;;;;;15.03;100.00;101647.81;5018389;28;20046;-51
2023/10/10 07:25:07;;;;;;;62.47;47.65;;;;;;;15.13;100.00;101637.72;5033087;28;20069;-51
2023/10/10 07:27:36;;;;;;;61.72;47.17;;;;;;;15.17;100.00;101640.22;5017667;28;20040;-48
2023/10/10 07:30:09;;;;;;;64.03;45.92;;;;;;;14.97;100.00;101589.72;5017922;28;20030;-48
2023/10/10 07:32:38;;;;;;;65.15;49.22;;;;;;;15.30;100.00;101627.31;5016869;28;20128;-51
2023/10/10 07:35:05;;;;;;;61.75;45.88;;;;;;;15.30;100.00;101616.72;5018317;28;20065;-50
2023/10/10 07:37:31;;;;;;;60.95;45.53;;;;;;;15.41;100.00;101632.22;5011302;28;20089;-50
2023/10/10 07:39:57;;;;;;;60.03;48.15;;;;;;;15.33;100.00;101611.28;5000292;28;20037;-49
2023/10/10 07:42:30;;;;;;;62.72;47.22;;;;;;;15.45;100.00;101625.84;5029764;28;20030;-50
2023/10/10 07:45:03;;;;;;;58.65;47.65;;;;;;;15.48;100.00;101639.91;5029928;28;20528;-50
2023/10/10 07:47:32;;;;;;;55.13;46.03;;;;;;;15.52;100.00;101645.97;5020847;28;20037;-53
2023/10/10 07:49:59;;;;;;;60.05;45.97;;;;;;;15.58;100.00;101651.03;5013213;28;20365;-52
2023/10/10 07:52:25;;;;;;;58.50;46.33;;;;;;;15.27;100.00;101570.88;5008512;28;20092;-52
2023/10/10 07:54:53;;;;;;;61.53;48.28;;;;;;;15.44;100.00;101576.41;5013178;28;20029;-49
2023/10/10 07:57:29;;;;;;;50.88;44.67;;;;;;;15.74;100.00;101604.34;5008600;28;20041;-50
2023/10/10 07:59:55;;;;;;;55.17;44.33;;;;;;;16.00;100.00;101635.97;5010103;28;20038;-50
2023/10/10 08:02:34;;;;;;;52.83;44.70;;;;;;;16.04;100.00;101629.63;5021462;28;20037;-52
2023/10/10 08:05:01;;;;;;;52.72;44.53;;;;;;;16.14;100.00;101630.09;5016091;28;20149;-52
2023/10/10 08:07:27;;;;;;;57.55;44.65;;;;;;;15.90;100.00;101586.00;5013999;28;20046;-53
2023/10/10 08:10:13;;;;;;;54.55;42.47;;;;;;;16.20;100.00;101635.97;5014338;28;20030;-51
2023/10/10 08:12:42;;;;;;;56.55;44.40;;;;;;;16.30;100.00;101650.63;5013989;28;20068;-51
2023/10/10 08:15:20;;;;;;;55.47;44.15;;;;;;;16.36;100.00;101635.31;5011673;28;20091;-51
2023/10/10 08:17:55;;;;;;;50.08;41.10;;;;;;;16.37;100.00;101616.69;5023471;28;20125;-55
2023/10/10 08:20:33;;;;;;;46.00;39.33;;;;;;;16.26;100.00;101564.00;5013045;28;20528;-54
2023/10/10 08:22:59;;;;;;;47.53;39.47;;;;;;;16.64;100.00;101595.97;5013899;28;20476;-54
2023/10/10 08:25:25;;;;;;;46.55;37.67;;;;;;;16.60;100.00;101552.75;5013235;28;20058;-48
2023/10/10 08:27:51;;;;;;;50.83;39.35;;;;;;;17.23;100.00;101638.44;5011117;28;20496;-47
2023/10/10 08:30:16;;;;;;;46.50;37.42;;;;;;;17.04;100.00;101584.38;5013700;28;20034;-48
2023/10/10 08:32:43;;;;;;;45.67;35.95;;;;;;;17.22;100.00;101578.19;5014038;28;20034;-54
2023/10/10 08:35:10;;;;;;;40.50;34.70;;;;;;;17.31;100.00;101588.38;5013700;28;20038;-55
2023/10/10 08:37:36;;;;;;;40.55;34.22;;;;;;;17.75;100.00;101655.44;5013873;28;20044;-47
2023/10/10 08:40:15;;;;;;;43.70;34.85;;;;;;;17.81;100.00;101663.13;5013886;28;20033;-49
2023/10/10 08:42:43;;;;;;;40.38;33.95;;;;;;;17.62;100.00;101633.91;5013729;28;20120;-51
2023/10/10 08:45:22;;;;;;;40.58;33.22;;;;;;;17.88;100.00;101670.78;5013785;28;20034;-51
2023/10/10 08:47:50;;;;;;;38.88;32.35;;;;;;;17.92;100.00;101669.66;5013527;28;20068;-51
2023/10/10 08:50:16;;;;;;;39.50;31.95;;;;;;;17.78;100.00;101597.56;5011302;28;20029;-51
2023/10/10 08:52:42;;;;;;;38.20;30.95;;;;;;;18.09;100.00;101604.91;5013727;28;20080;-48
2023/10/10 08:55:10;;;;;;;33.30;29.67;;;;;;;18.38;100.00;101604.25;5013462;28;20034;-49
2023/10/10 08:57:38;;;;;;;34.80;29.83;;;;;;;18.38;100.00;101603.38;5029032;28;20149;-52
2023/10/10 09:00:12;;;;;;;37.50;28.27;;;;;;;18.74;100.00;101684.09;5013698;28;20034;-50
2023/10/10 09:02:39;;;;;;;35.65;30.02;;;;;;;18.21;100.00;101619.38;5013608;28;20045;-53
2023/10/10 09:05:06;;;;;;;35.67;29.27;;;;;;;18.79;100.00;101681.22;5013178;28;20445;-49
2023/10/10 09:07:32;;;;;;;34.00;29.02;;;;;;;18.70;100.00;101593.69;5028301;28;20048;-52
2023/10/10 09:10:18;;;;;;;31.10;27.55;;;;;;;19.54;100.00;101670.84;5013043;28;20484;-51
2023/10/10 09:13:07;;;;;;;32.35;26.98;;;;;;;19.67;100.00;101620.28;5013239;28;20061;-48
2023/10/10 09:15:33;;;;;;;31.15;26.23;;;;;;;20.03;100.00;101613.63;5012774;28;20471;-52
2023/10/10 09:18:22;;;;;;;33.85;27.00;;;;;;;20.68;100.00;101697.94;5012905;28;20046;-51
2023/10/10 09:20:47;;;;;;;29.25;25.85;;;;;;;20.42;100.00;101613.06;5028047;28;20061;-55
2023/10/10 09:23:23;;;;;;;31.83;26.00;;;;;;;20.40;100.00;101632.84;5013244;28;20440;-54
2023/10/10 09:26:29;;;;;;;31.10;26.20;;;;;;;20.05;100.00;101634.94;5011704;28;20077;-49
2023/10/10 09:28:58;;;;;;;33.63;26.30;;;;;;;20.43;100.00;101689.66;5025395;28;20046;-49
2023/10/10 09:31:31;;;;;;;31.73;26.13;;;;;;;20.52;100.00;101693.63;5013076;28;20040;-51
2023/10/10 09:33:57;;;;;;;31.02;25.08;;;;;;;20.47;100.00;101676.97;5012729;28;20457;-49
2023/10/10 09:36:29;;;;;;;34.28;26.50;;;;;;;20.33;100.00;101637.69;5028032;28;20136;-50
2023/10/10 09:39:08;;;;;;;29.25;24.05;;;;;;;20.86;100.00;101700.44;5027476;28;20109;-54
2023/10/10 09:50:00;;;;;;;34.67;24.80;;;;;;;20.42;100.00;101693.31;5012222;28;20081;-49
2023/10/10 09:58:00;;;;;;;27.90;23.30;;;;;;;19.92;100.00;101652.63;5012321;28;20041;-47
2023/10/10 10:00:45;;;;;;;26.60;23.10;;;;;;;19.83;100.00;101629.09;5011967;28;20116;-48
2023/10/10 10:03:32;;;;;;;28.58;23.70;;;;;;;20.22;100.00;101709.63;5012326;28;20049;-49
2023/10/10 10:06:58;;;;;;;25.90;22.67;;;;;;;20.17;100.00;101706.34;5026073;28;20366;-56
2023/10/10 10:09:31;;;;;;;28.48;24.23;;;;;;;20.17;100.00;101699.19;5016693;28;20041;-54
2023/10/10 10:12:04;;;;;;;27.65;23.65;;;;;;;20.24;100.00;101691.69;5012313;28;20026;-56
2023/10/10 10:15:01;;;;;;;29.15;23.95;;;;;;;20.08;100.00;101656.13;5012204;28;20056;-53
2023/10/10 10:17:56;;;;;;;27.70;22.95;;;;;;;20.31;100.00;101682.41;5003039;28;20144;-54
2023/10/10 10:20:33;;;;;;;29.27;23.98;;;;;;;20.44;100.00;101691.38;5010836;28;20089;-50
2023/10/10 10:23:00;;;;;;;28.10;22.38;;;;;;;20.65;100.00;101698.13;5026868;28;20018;-55
2023/10/10 10:25:28;;;;;;;25.30;21.98;;;;;;;21.07;100.00;101691.94;5012044;28;20069;-50
2023/10/10 10:28:10;;;;;;;26.42;22.00;;;;;;;21.15;100.00;101643.31;5012170;28;20034;-50
2023/10/10 10:31:00;;;;;;;26.98;23.02;;;;;;;21.65;100.00;101694.50;5012169;28;20473;-50
2023/10/10 10:33:25;;;;;;;23.85;21.02;;;;;;;21.51;100.00;101645.44;5011874;28;20129;-48
2023/10/10 10:35:56;;;;;;;24.70;21.95;;;;;;;21.88;100.00;101700.19;5012043;28;20125;-49
2023/10/10 10:38:23;;;;;;;23.80;21.13;;;;;;;21.54;100.00;101658.63;5012126;28;20040;-48
2023/10/10 10:40:50;;;;;;;26.23;20.30;;;;;;;21.76;100.00;101707.19;5010261;28;20076;-50
2023/10/10 10:43:22;;;;;;;25.75;20.77;;;;;;;21.65;100.00;101656.13;5026627;28;20030;-51
2023/10/10 10:45:51;;;;;;;26.85;22.02;;;;;;;22.44;100.00;101702.63;5011998;28;20038;-51
2023/10/10 10:48:30;;;;;;;25.00;20.88;;;;;;;23.18;100.00;101696.53;5010456;28;20511;-50
2023/10/10 10:51:03;;;;;;;24.25;20.40;;;;;;;24.23;100.00;101658.22;5011910;28;20128;-52
2023/10/10 10:53:38;;;;;;;24.38;21.77;;;;;;;25.15;100.00;101675.19;5011887;28;20041;-50
2023/10/10 10:56:37;;;;;;;22.48;18.65;;;;;;;25.37;100.00;101650.03;5011802;28;20030;-48
2023/10/10 11:01:24;;;;;;;22.10;19.65;;;;;;;25.43;100.00;101726.84;5012102;28;20065;-53
2023/10/10 11:03:53;;;;;;;24.23;19.45;;;;;;;24.90;100.00;101712.25;5011853;28;20034;-49
2023/10/10 11:06:20;;;;;;;21.67;18.83;;;;;;;24.57;100.00;101708.50;5011709;28;20048;-49
2023/10/10 11:11:27;;;;;;;23.60;19.25;;;;;;;24.40;100.00;101651.56;5011880;28;20493;-50
2023/10/10 11:13:54;;;;;;;24.55;19.50;;;;;;;25.24;100.00;101651.16;5014790;28;20026;-50
2023/10/10 11:16:36;;;;;;;20.67;16.83;;;;;;;26.28;100.00;101650.53;5014305;28;20133;-51
2023/10/10 11:19:12;;;;;;;21.35;16.95;;;;;;;27.10;100.00;101673.91;5029133;28;20087;-48
2023/10/10 11:21:48;;;;;;;20.33;18.15;;;;;;;27.73;100.00;101707.03;5015495;28;20105;-50
2023/10/10 11:24:15;;;;;;;22.98;18.80;;;;;;;28.33;100.00;101717.66;5014792;28;20092;-51
2023/10/10 11:26:43;;;;;;;22.25;18.77;;;;;;;28.62;100.00;101708.63;5015366;28;20217;-49
2023/10/10 11:29:29;;;;;;;20.30;17.40;;;;;;;28.83;100.00;101728.31;5014990;28;20049;-51
2023/10/10 11:32:07;;;;;;;21.98;19.30;;;;;;;28.93;100.00;101730.00;5014942;28;20438;-51
2023/10/10 11:34:45;;;;;;;20.67;18.48;;;;;;;29.17;100.00;101728.63;5015227;28;20049;-50
2023/10/10 11:37:23;;;;;;;22.10;17.88;;;;;;;29.19;100.00;101718.50;5029021;28;20064;-52
2023/10/10 11:42:47;;;;;;;20.40;17.02;;;;;;;28.59;100.00;101650.19;5012664;28;20042;-49
2023/10/10 11:45:17;;;;;;;21.35;17.10;;;;;;;29.28;100.00;101701.34;5015135;28;20431;-55
2023/10/10 11:47:44;;;;;;;19.88;17.70;;;;;;;29.38;100.00;101691.31;5014984;28;20034;-52
2023/10/10 11:50:15;;;;;;;19.45;17.38;;;;;;;29.37;100.00;101676.91;5014654;28;20485;-53
2023/10/10 11:52:53;;;;;;;22.55;17.52;;;;;;;29.77;100.00;101705.53;5014960;28;20034;-53
2023/10/10 11:55:20;;;;;;;19.85;16.80;;;;;;;29.30;100.00;101639.72;5014480;28;20515;-52
2023/10/10 11:57:49;;;;;;;19.17;16.58;;;;;;;29.48;100.00;101657.72;5014506;28;20064;-53
2023/10/10 12:00:42;;;;;;;19.58;15.52;;;;;;;29.25;100.00;101636.56;5014581;28;20026;-52
2023/10/10 12:03:19;;;;;;;18.40;16.38;;;;;;;29.45;100.00;101678.88;5026967;28;20034;-50
2023/10/10 12:05:47;;;;;;;20.08;17.30;;;;;;;29.72;100.00;101692.41;5014532;28;20381;-52
2023/10/10 12:08:15;;;;;;;19.48;15.90;;;;;;;29.56;100.00;101689.53;5029330;28;20045;-49
2023/10/10 12:10:47;;;;;;;18.00;15.35;;;;;;;29.03;100.00;101641.38;5014361;28;20112;-53
2023/10/10 12:13:19;;;;;;;18.85;16.42;;;;;;;28.69;100.00;101632.06;5014174;28;20511;-49
2023/10/10 12:15:46;;;;;;;18.90;15.43;;;;;;;29.31;100.00;101674.78;5014662;28;20431;-50
2023/10/10 12:18:13;;;;;;;19.40;16.00;;;;;;;29.41;100.00;101634.94;5014133;28;20516;-47
2023/10/10 12:20:43;;;;;;;17.67;15.63;;;;;;;29.34;100.00;101677.22;5014352;28;20072;-51
2023/10/10 12:23:12;;;;;;;20.83;15.23;;;;;;;28.66;100.00;101620.69;5013883;28;20037;-53
2023/10/10 12:25:41;;;;;;;19.02;15.13;;;;;;;28.10;100.00;101628.75;5029247;28;20042;-53
2023/10/10 12:28:10;;;;;;;18.88;14.82;;;;;;;27.76;100.00;101663.44;5014274;28;20053;-54
2023/10/10 12:30:40;;;;;;;18.57;14.20;;;;;;;27.41;100.00;101658.50;5014223;28;20440;-51
2023/10/10 12:33:12;;;;;;;19.88;15.18;;;;;;;27.86;100.00;101661.63;5014005;28;20037;-53
2023/10/10 12:35:42;;;;;;;15.50;12.68;;;;;;;28.67;100.00;101665.72;5012799;28;20404;-53
2023/10/10 12:38:07;;;;;;;15.30;10.77;;;;;;;28.93;100.00;101615.31;5028652;28;20036;-50
2023/10/10 12:40:33;;;;;;;15.75;11.60;;;;;;;29.72;100.00;101658.97;5014103;28;20026;-52
2023/10/10 12:43:03;;;;;;;20.40;13.38;;;;;;;30.01;100.00;101663.22;5013754;28;20116;-53
2023/10/10 12:45:29;;;;;;;17.55;13.85;;;;;;;30.11;100.00;101657.72;5013748;28;20039;-53
2023/10/10 12:47:57;;;;;;;14.93;12.00;;;;;;;30.49;100.00;101662.81;5013525;28;20037;-53
2023/10/10 12:50:26;;;;;;;16.95;11.55;;;;;;;30.07;100.00;101635.44;5013601;28;20069;-52
2023/10/10 12:55:55;;;;;;;16.42;11.82;;;;;;;28.87;100.00;101618.59;5008652;28;20045;-51
2023/10/10 12:58:22;;;;;;;12.95;10.18;;;;;;;28.61;100.00;101604.84;5012305;28;20060;-49
2023/10/10 13:00:51;;;;;;;14.15;11.13;;;;;;;28.89;100.00;101593.09;5013595;28;20034;-52
2023/10/10 13:03:23;;;;;;;13.10;11.05;;;;;;;29.24;100.00;101652.03;5013372;28;20056;-53
2023/10/10 13:05:52;;;;;;;15.50;10.98;;;;;;;29.20;100.00;101604.47;5013667;28;20362;-54
2023/10/10 13:08:20;;;;;;;12.05;9.23;;;;;;;30.01;100.00;101646.94;5013659;28;20041;-51
2023/10/10 13:10:54;;;;;;;14.32;9.95;;;;;;;29.74;100.00;101621.72;5013304;28;20038;-55
2023/10/10 13:13:26;;;;;;;16.23;9.75;;;;;;;30.23;100.00;101666.47;5012123;28;20108;-54
2023/10/10 13:16:07;;;;;;;14.65;9.55;;;;;;;29.92;100.00;101653.28;5013417;28;20474;-56
2023/10/10 13:18:33;;;;;;;14.50;8.98;;;;;;;29.61;100.00;101604.94;5012974;28;20684;-52
2023/10/10 13:21:00;;;;;;;11.85;8.15;;;;;;;29.59;100.00;101605.13;5013484;28;20066;-55
2023/10/10 13:23:25;;;;;;;9.68;7.15;;;;;;;30.02;100.00;101662.22;5013127;28;20030;-55
2023/10/10 13:25:51;;;;;;;10.02;6.93;;;;;;;30.27;100.00;101666.00;5012948;28;20461;-54
2023/10/10 13:28:21;;;;;;;8.57;6.05;;;;;;;30.28;100.00;101673.13;5013151;28;20121;-52
2023/10/10 13:30:46;;;;;;;7.70;5.93;;;;;;;30.01;100.00;101621.63;5013205;28;20038;-55
2023/10/10 13:33:13;;;;;;;8.75;5.95;;;;;;;29.69;100.00;101603.16;5013197;28;20460;-51
2023/10/10 13:35:39;;;;;;;12.73;6.57;;;;;;;29.38;100.00;101599.97;5012245;28;20128;-53
2023/10/10 13:38:06;;;;;;;8.73;6.18;;;;;;;29.47;100.00;101649.75;5027836;28;20449;-54
2023/10/10 13:40:38;;;;;;;10.55;6.53;;;;;;;28.17;100.00;101662.34;5027907;28;20045;-53
2023/10/10 13:43:08;;;;;;;11.80;7.15;;;;;;;26.73;100.00;101595.25;5012855;28;20033;-53
2023/10/10 13:45:38;;;;;;;9.52;5.75;;;;;;;26.54;100.00;101632.06;5012802;28;20042;-54
2023/10/10 13:48:14;;;;;;;13.57;6.18;;;;;;;26.55;100.00;101634.66;5012648;28;20408;-52
2023/10/10 13:50:44;;;;;;;8.85;5.60;;;;;;;25.79;100.00;101580.97;5012582;28;20025;-51
2023/10/10 13:53:14;;;;;;;8.75;5.43;;;;;;;25.70;100.00;101603.31;5027077;28;20064;-50
2023/10/10 13:55:44;;;;;;;10.05;5.35;;;;;;;26.00;100.00;101575.59;5027753;28;20052;-55
2023/10/10 13:58:12;;;;;;;8.65;5.28;;;;;;;26.90;100.00;101579.41;5012420;28;20041;-48
2023/10/10 14:00:43;;;;;;;11.77;5.68;;;;;;;28.01;100.00;101640.41;5012427;28;20144;-52